Dernières observations dans les principales villes de France

A voir aussi... Observations brutes

 
Ville Température Humidité Pression Vent Vent moyen Rafales Heure
Paris-Orly 25.0 44 1017.0 S 6 6 21/05/2011 19:30
Paris-Le Bourget 25.0 39 1017.0 S 6 6 21/05/2011 19:30
Paris CDG 24.0 39 1017.0 SSO 8 8 21/05/2011 19:30
Tours 25.0 44 1017.0 SO 8 8 21/05/2011 19:30
Bourges 27.0 34 1018.0 N 5 5 21/05/2011 17:00
Orléans 26.0 42 1017.0 SSO 8 8 21/05/2011 19:30
Châteauroux 23.0 57 1017.0 ENE 6 6 21/05/2011 19:30
Quimper/Plugu. 17.0 59 1018.0 O 18 18 21/05/2011 19:30
Lille/Lesquin 22.0 38 1017.0 OSO 14 14 21/05/2011 19:30
Caen/Carpiquet 17.0 63 1018.0 NNO 13 13 21/05/2011 19:00
Rouen/Boos 21.0 60 1017.0 N 3 3 21/05/2011 19:30
Evreux 23.0 47 1017.0 SSO 16 16 21/05/2011 19:30
Beauvais/Tille 23.0 44 1017.0 N 3 3 21/05/2011 19:30
Rennes/St Jac. 22.0 50 1017.0 N 16 16 21/05/2011 19:30
Nantes/Chât.B. 22.0 53 1017.0 O 16 16 21/05/2011 19:00
Saint Brieuc Arm. 16.0 63 1018.0 N 10 10 21/05/2011 19:30
La Rochelle/Laleu 19.0 64 1018.0 O 16 16 21/05/2011 19:30
Bordeaux/Mérig. 24.0 54 1017.0 NO 16 16 21/05/2011 19:30
Poitiers/Biard 25.0 47 1017.0 O 10 10 21/05/2011 19:30
Limoges/Belle. 24.0 44 1019.0 --- 0 0 21/05/2011 19:30
Clermont/Aulnat 24.0 44 1018.0 NO 13 13 21/05/2011 19:00
St Etienne/Bouth. 24.0 34 1018.0 SSO 5 5 21/05/2011 19:30
Lyon/Bron 27.0 30 1017.0 NNE 8 8 21/05/2011 19:30
Lyon/Satolas 26.0 32 1017.0 N 6 6 21/05/2011 19:30
Grenoble/St G. 22.0 46 1018.0 S 19 19 21/05/2011 19:30
Chambéry/Aix B. 22.0 73 1018.0 SSE 8 8 21/05/2011 19:30
Agen/La Garenne 28.0 30 1017.0 N 2 2 21/05/2011 19:30
Rodez/Marcillac 16.0 82 1020.0 ESE 13 13 21/05/2011 19:30
Toulouse/Blagn. 27.0 28 1017.0 ONO 5 5 21/05/2011 19:30
Nîmes/Garons 26.0 30 1017.0 O 10 10 21/05/2011 19:30
Marseille/Marign. 25.0 32 1017.0 O 14 14 21/05/2011 19:30
Nice/Côte d'Azur 22.0 69 1016.0 SSE 5 5 21/05/2011 19:30
Perpignan/Rives. 25.0 44 1017.0 SE 6 6 21/05/2011 19:30
Reims/Champ. 24.0 39 1018.0 ONO 6 6 21/05/2011 19:30
Dijon/Longvic 25.0 39 1018.0 NE 6 6 21/05/2011 19:30
Strasbourg/Entz. 25.0 39 1017.0 SSO 5 5 21/05/2011 19:30

 


© Copyright - Meteomania - 2009 - www.meteomania.net